sensor_id;sensor_type;location;lat;lon;timestamp;pressure;altitude;pressure_sealevel;temperature;humidity
7022;BME280;3552;42.664;23.406;2022-11-20T00:01:05;48987.94;;;-141.28;100.00
7022;BME280;3552;42.664;23.406;2022-11-20T00:03:38;48972.25;;;-141.28;100.00
7022;BME280;3552;42.664;23.406;2022-11-20T00:06:10;48978.13;;;-141.28;100.00
7022;BME280;3552;42.664;23.406;2022-11-20T00:08:53;48964.38;;;-141.28;100.00
7022;BME280;3552;42.664;23.406;2022-11-20T00:11:22;48936.91;;;-141.28;100.00
7022;BME280;3552;42.664;23.406;2022-11-20T00:13:51;48948.69;;;-141.28;100.00
7022;BME280;3552;42.664;23.406;2022-11-20T00:16:20;48940.84;;;-141.28;100.00
7022;BME280;3552;42.664;23.406;2022-11-20T00:18:47;48946.72;;;-141.28;100.00
7022;BME280;3552;42.664;23.406;2022-11-20T00:21:18;48954.59;;;-141.28;100.00
7022;BME280;3552;42.664;23.406;2022-11-20T00:23:47;49027.19;;;-141.28;100.00
7022;BME280;3552;42.664;23.406;2022-11-20T00:26:16;48968.31;;;-141.28;100.00
7022;BME280;3552;42.664;23.406;2022-11-20T00:28:43;49015.41;;;-141.28;100.00
7022;BME280;3552;42.664;23.406;2022-11-20T00:31:13;49148.81;;;-141.28;100.00
7022;BME280;3552;42.664;23.406;2022-11-20T00:33:40;49207.69;;;-141.28;100.00
7022;BME280;3552;42.664;23.406;2022-11-20T00:36:09;49190.03;;;-141.28;100.00
7022;BME280;3552;42.664;23.406;2022-11-20T00:38:38;49160.59;;;-141.28;100.00
7022;BME280;3552;42.664;23.406;2022-11-20T00:41:07;49137.06;;;-141.28;100.00
7022;BME280;3552;42.664;23.406;2022-11-20T00:43:34;49117.44;;;-141.28;100.00
7022;BME280;3552;42.664;23.406;2022-11-20T00:46:03;49066.41;;;-141.28;100.00
7022;BME280;3552;42.664;23.406;2022-11-20T00:48:31;49038.94;;;-141.28;100.00
7022;BME280;3552;42.664;23.406;2022-11-20T00:50:58;49011.47;;;-141.28;100.00
7022;BME280;3552;42.664;23.406;2022-11-20T00:53:25;49003.63;;;-141.28;100.00
7022;BME280;3552;42.664;23.406;2022-11-20T00:55:55;48995.78;;;-141.28;100.00
7022;BME280;3552;42.664;23.406;2022-11-20T00:58:23;49011.47;;;-141.28;100.00
7022;BME280;3552;42.664;23.406;2022-11-20T01:00:50;49035.03;;;-141.28;100.00
7022;BME280;3552;42.664;23.406;2022-11-20T01:03:18;49033.06;;;-141.28;100.00
7022;BME280;3552;42.664;23.406;2022-11-20T01:05:45;49054.66;;;-141.28;100.00
7022;BME280;3552;42.664;23.406;2022-11-20T01:08:11;49074.25;;;-141.28;100.00
7022;BME280;3552;42.664;23.406;2022-11-20T01:10:38;49056.59;;;-141.28;100.00
7022;BME280;3552;42.664;23.406;2022-11-20T01:13:07;49091.91;;;-141.28;100.00
7022;BME280;3552;42.664;23.406;2022-11-20T01:15:53;49095.84;;;-141.28;100.00
7022;BME280;3552;42.664;23.406;2022-11-20T01:18:19;49042.88;;;-141.28;100.00
7022;BME280;3552;42.664;23.406;2022-11-20T01:20:46;49021.28;;;-141.28;100.00
7022;BME280;3552;42.664;23.406;2022-11-20T01:23:13;49031.09;;;-141.28;100.00
7022;BME280;3552;42.664;23.406;2022-11-20T01:25:40;49060.53;;;-141.28;100.00
7022;BME280;3552;42.664;23.406;2022-11-20T01:28:09;49093.88;;;-141.28;100.00
7022;BME280;3552;42.664;23.406;2022-11-20T01:30:36;49097.81;;;-141.28;100.00
7022;BME280;3552;42.664;23.406;2022-11-20T01:33:02;49109.59;;;-141.28;100.00
7022;BME280;3552;42.664;23.406;2022-11-20T01:35:29;49089.97;;;-141.28;100.00
7022;BME280;3552;42.664;23.406;2022-11-20T01:37:56;49109.59;;;-141.28;100.00
7022;BME280;3552;42.664;23.406;2022-11-20T01:40:23;49074.25;;;-141.28;100.00
7022;BME280;3552;42.664;23.406;2022-11-20T01:42:55;49033.06;;;-141.28;100.00
7022;BME280;3552;42.664;23.406;2022-11-20T01:46:13;49129.19;;;-141.28;100.00
7022;BME280;3552;42.664;23.406;2022-11-20T01:48:46;49050.72;;;-141.28;100.00
7022;BME280;3552;42.664;23.406;2022-11-20T01:51:20;48978.13;;;-141.28;100.00
7022;BME280;3552;42.664;23.406;2022-11-20T01:53:48;48946.72;;;-141.28;100.00
7022;BME280;3552;42.664;23.406;2022-11-20T01:56:16;48925.16;;;-141.28;100.00
7022;BME280;3552;42.664;23.406;2022-11-20T01:58:47;48946.72;;;-141.28;100.00
7022;BME280;3552;42.664;23.406;2022-11-20T02:01:17;48972.25;;;-141.28;100.00
7022;BME280;3552;42.664;23.406;2022-11-20T02:03:44;48980.09;;;-141.28;100.00
7022;BME280;3552;42.664;23.406;2022-11-20T02:06:16;49054.66;;;-141.28;100.00
7022;BME280;3552;42.664;23.406;2022-11-20T02:08:44;49015.41;;;-141.28;100.00
7022;BME280;3552;42.664;23.406;2022-11-20T02:11:11;49062.50;;;-141.28;100.00
7022;BME280;3552;42.664;23.406;2022-11-20T02:13:39;49109.59;;;-141.28;100.00
7022;BME280;3552;42.664;23.406;2022-11-20T02:16:10;49148.81;;;-141.28;100.00
7022;BME280;3552;42.664;23.406;2022-11-20T02:18:39;49144.91;;;-141.28;100.00
7022;BME280;3552;42.664;23.406;2022-11-20T02:21:11;49148.81;;;-141.28;100.00
7022;BME280;3552;42.664;23.406;2022-11-20T02:23:54;49186.09;;;-141.28;100.00
7022;BME280;3552;42.664;23.406;2022-11-20T02:26:23;49215.53;;;-141.28;100.00
7022;BME280;3552;42.664;23.406;2022-11-20T02:28:50;49188.06;;;-141.28;100.00
7022;BME280;3552;42.664;23.406;2022-11-20T02:31:18;49192.00;;;-141.28;100.00
7022;BME280;3552;42.664;23.406;2022-11-20T02:33:45;49217.50;;;-141.28;100.00
7022;BME280;3552;42.664;23.406;2022-11-20T02:36:15;49252.81;;;-141.28;100.00
7022;BME280;3552;42.664;23.406;2022-11-20T02:38:43;49315.59;;;-141.28;100.00
7022;BME280;3552;42.664;23.406;2022-11-20T02:41:11;49366.63;;;-141.28;100.00
7022;BME280;3552;42.664;23.406;2022-11-20T02:43:38;49415.69;;;-141.28;100.00
7022;BME280;3552;42.664;23.406;2022-11-20T02:46:06;49403.91;;;-141.28;100.00
7022;BME280;3552;42.664;23.406;2022-11-20T02:48:33;49401.94;;;-141.28;100.00
7022;BME280;3552;42.664;23.406;2022-11-20T02:51:01;49537.34;;;-141.28;100.00
7022;BME280;3552;42.664;23.406;2022-11-20T02:53:28;49757.13;;;-141.28;100.00
7022;BME280;3552;42.664;23.406;2022-11-20T02:55:55;49969.06;;;-141.28;100.00
7022;BME280;3552;42.664;23.406;2022-11-20T02:58:24;50137.88;;;-141.28;100.00
7022;BME280;3552;42.664;23.406;2022-11-20T03:00:52;50289.00;;;-141.28;100.00
7022;BME280;3552;42.664;23.406;2022-11-20T03:03:19;50412.66;;;-141.28;100.00
7022;BME280;3552;42.664;23.406;2022-11-20T03:05:46;50471.53;;;-141.28;100.00
7022;BME280;3552;42.664;23.406;2022-11-20T03:08:13;50479.38;;;-141.28;100.00
7022;BME280;3552;42.664;23.406;2022-11-20T03:10:40;50455.84;;;-141.28;100.00
7022;BME280;3552;42.664;23.406;2022-11-20T03:13:07;50499.00;;;-141.28;100.00
7022;BME280;3552;42.664;23.406;2022-11-20T03:15:37;50612.88;;;-141.28;100.00
7022;BME280;3552;42.664;23.406;2022-11-20T03:18:04;50838.63;;;-141.28;100.00
7022;BME280;3552;42.664;23.406;2022-11-20T03:20:32;50970.13;;;-141.28;100.00
7022;BME280;3552;42.664;23.406;2022-11-20T03:22:59;51040.81;;;-141.28;100.00
7022;BME280;3552;42.664;23.406;2022-11-20T03:25:27;51158.59;;;-141.28;100.00
7022;BME280;3552;42.664;23.406;2022-11-20T03:27:54;51164.50;;;-141.28;100.00
7022;BME280;3552;42.664;23.406;2022-11-20T03:30:22;51115.41;;;-141.28;100.00
7022;BME280;3552;42.664;23.406;2022-11-20T03:32:52;51213.56;;;-141.28;100.00
7022;BME280;3552;42.664;23.406;2022-11-20T03:35:19;51144.88;;;-141.28;100.00
7022;BME280;3552;42.664;23.406;2022-11-20T03:37:46;51152.72;;;-141.28;100.00
7022;BME280;3552;42.664;23.406;2022-11-20T03:40:13;51166.47;;;-141.28;100.00
7022;BME280;3552;42.664;23.406;2022-11-20T03:42:40;51146.81;;;-141.28;100.00
7022;BME280;3552;42.664;23.406;2022-11-20T03:45:13;51233.22;;;-141.28;100.00
7022;BME280;3552;42.664;23.406;2022-11-20T03:47:40;51193.94;;;-141.28;100.00
7022;BME280;3552;42.664;23.406;2022-11-20T03:50:11;51172.34;;;-141.28;100.00
7022;BME280;3552;42.664;23.406;2022-11-20T03:52:39;51135.03;;;-141.28;100.00
7022;BME280;3552;42.664;23.406;2022-11-20T03:55:07;51131.13;;;-141.28;100.00
7022;BME280;3552;42.664;23.406;2022-11-20T03:57:34;51064.38;;;-141.28;100.00
7022;BME280;3552;42.664;23.406;2022-11-20T04:00:00;51054.56;;;-141.28;100.00
7022;BME280;3552;42.664;23.406;2022-11-20T04:02:27;51029.03;;;-141.28;100.00
7022;BME280;3552;42.664;23.406;2022-11-20T04:04:54;51029.03;;;-141.28;100.00
7022;BME280;3552;42.664;23.406;2022-11-20T04:07:23;51103.63;;;-141.28;100.00
7022;BME280;3552;42.664;23.406;2022-11-20T04:09:49;51089.91;;;-141.28;100.00
7022;BME280;3552;42.664;23.406;2022-11-20T04:12:16;51115.41;;;-141.28;100.00
7022;BME280;3552;42.664;23.406;2022-11-20T04:14:43;51093.81;;;-141.28;100.00
7022;BME280;3552;42.664;23.406;2022-11-20T04:17:10;51087.94;;;-141.28;100.00
7022;BME280;3552;42.664;23.406;2022-11-20T04:19:38;51180.19;;;-141.28;100.00
7022;BME280;3552;42.664;23.406;2022-11-20T04:22:04;51099.72;;;-141.28;100.00
7022;BME280;3552;42.664;23.406;2022-11-20T04:24:33;51158.59;;;-141.28;100.00
7022;BME280;3552;42.664;23.406;2022-11-20T04:27:00;51103.63;;;-141.28;100.00
7022;BME280;3552;42.664;23.406;2022-11-20T04:29:26;51078.13;;;-141.28;100.00
7022;BME280;3552;42.664;23.406;2022-11-20T04:31:55;51084.00;;;-141.28;100.00
7022;BME280;3552;42.664;23.406;2022-11-20T04:34:22;51125.22;;;-141.28;100.00
7022;BME280;3552;42.664;23.406;2022-11-20T04:36:48;51050.63;;;-141.28;100.00
7022;BME280;3552;42.664;23.406;2022-11-20T04:39:16;51119.34;;;-141.28;100.00
7022;BME280;3552;42.664;23.406;2022-11-20T04:41:44;51101.66;;;-141.28;100.00
7022;BME280;3552;42.664;23.406;2022-11-20T04:44:11;51082.03;;;-141.28;100.00
7022;BME280;3552;42.664;23.406;2022-11-20T04:46:39;51054.56;;;-141.28;100.00
7022;BME280;3552;42.664;23.406;2022-11-20T04:49:07;51017.25;;;-141.28;100.00
7022;BME280;3552;42.664;23.406;2022-11-20T04:51:34;51021.19;;;-141.28;100.00
7022;BME280;3552;42.664;23.406;2022-11-20T04:54:03;51005.47;;;-141.28;100.00
7022;BME280;3552;42.664;23.406;2022-11-20T04:56:30;51050.63;;;-141.28;100.00
7022;BME280;3552;42.664;23.406;2022-11-20T04:59:01;51095.78;;;-141.28;100.00
7022;BME280;3552;42.664;23.406;2022-11-20T05:01:28;51146.81;;;-141.28;100.00
7022;BME280;3552;42.664;23.406;2022-11-20T05:03:55;51074.19;;;-141.28;100.00
7022;BME280;3552;42.664;23.406;2022-11-20T05:06:22;51076.16;;;-141.28;100.00
7022;BME280;3552;42.664;23.406;2022-11-20T05:08:49;51064.38;;;-141.28;100.00
7022;BME280;3552;42.664;23.406;2022-11-20T05:11:18;51032.97;;;-141.28;100.00
7022;BME280;3552;42.664;23.406;2022-11-20T05:13:46;50942.66;;;-141.28;100.00
7022;BME280;3552;42.664;23.406;2022-11-20T05:16:16;50881.78;;;-141.28;100.00
7022;BME280;3552;42.664;23.406;2022-11-20T05:18:43;50805.25;;;-141.28;100.00
7022;BME280;3552;42.664;23.406;2022-11-20T05:21:11;50687.47;;;-141.28;100.00
7022;BME280;3552;42.664;23.406;2022-11-20T05:23:38;50569.69;;;-141.28;100.00
7022;BME280;3552;42.664;23.406;2022-11-20T05:26:07;50444.06;;;-141.28;100.00
7022;BME280;3552;42.664;23.406;2022-11-20T05:28:34;50338.06;;;-141.28;100.00
7022;BME280;3552;42.664;23.406;2022-11-20T05:31:05;50247.78;;;-141.28;100.00
7022;BME280;3552;42.664;23.406;2022-11-20T05:33:35;50192.81;;;-141.28;100.00
7022;BME280;3552;42.664;23.406;2022-11-20T05:36:04;50061.31;;;-141.28;100.00
7022;BME280;3552;42.664;23.406;2022-11-20T05:38:31;49976.94;;;-141.28;100.00
7022;BME280;3552;42.664;23.406;2022-11-20T05:41:09;50000.47;;;-141.28;100.00
7022;BME280;3552;42.664;23.406;2022-11-20T05:43:37;49957.31;;;-141.28;100.00
7022;BME280;3552;42.664;23.406;2022-11-20T05:46:06;49961.22;;;-141.28;100.00
7022;BME280;3552;42.664;23.406;2022-11-20T05:48:34;49949.44;;;-141.28;100.00
7022;BME280;3552;42.664;23.406;2022-11-20T05:51:03;49965.16;;;-141.28;100.00
7022;BME280;3552;42.664;23.406;2022-11-20T05:53:30;49992.63;;;-141.28;100.00
7022;BME280;3552;42.664;23.406;2022-11-20T05:55:58;50016.19;;;-141.28;100.00
7022;BME280;3552;42.664;23.406;2022-11-20T05:58:25;50057.41;;;-141.28;100.00
7022;BME280;3552;42.664;23.406;2022-11-20T06:00:52;50075.06;;;-141.28;100.00
7022;BME280;3552;42.664;23.406;2022-11-20T06:03:19;50153.56;;;-141.28;100.00
7022;BME280;3552;42.664;23.406;2022-11-20T06:05:48;50130.00;;;-141.28;100.00
7022;BME280;3552;42.664;23.406;2022-11-20T06:08:15;50082.91;;;-141.28;100.00
7022;BME280;3552;42.664;23.406;2022-11-20T06:10:41;50047.59;;;-141.28;100.00
7022;BME280;3552;42.664;23.406;2022-11-20T06:13:08;50059.34;;;-141.28;100.00
7022;BME280;3552;42.664;23.406;2022-11-20T06:15:35;50100.56;;;-141.28;100.00
7022;BME280;3552;42.664;23.406;2022-11-20T06:18:02;50143.75;;;-141.28;100.00
7022;BME280;3552;42.664;23.406;2022-11-20T06:20:29;50204.59;;;-141.28;100.00
7022;BME280;3552;42.664;23.406;2022-11-20T06:23:03;50287.03;;;-141.28;100.00
7022;BME280;3552;42.664;23.406;2022-11-20T06:25:37;50338.06;;;-141.28;100.00
7022;BME280;3552;42.664;23.406;2022-11-20T06:28:05;50292.91;;;-141.28;100.00
7022;BME280;3552;42.664;23.406;2022-11-20T06:30:33;50267.41;;;-141.28;100.00
7022;BME280;3552;42.664;23.406;2022-11-20T06:33:00;50234.03;;;-141.28;100.00
7022;BME280;3552;42.664;23.406;2022-11-20T06:35:26;50251.69;;;-141.28;100.00
7022;BME280;3552;42.664;23.406;2022-11-20T06:37:55;50251.69;;;-141.28;100.00
7022;BME280;3552;42.664;23.406;2022-11-20T06:40:24;50330.22;;;-141.28;100.00
7022;BME280;3552;42.664;23.406;2022-11-20T06:42:50;50289.00;;;-141.28;100.00
7022;BME280;3552;42.664;23.406;2022-11-20T06:45:19;50294.88;;;-141.28;100.00
7022;BME280;3552;42.664;23.406;2022-11-20T06:47:46;50310.59;;;-141.28;100.00
7022;BME280;3552;42.664;23.406;2022-11-20T06:50:13;50343.94;;;-141.28;100.00
7022;BME280;3552;42.664;23.406;2022-11-20T06:52:40;50398.91;;;-141.28;100.00
7022;BME280;3552;42.664;23.406;2022-11-20T06:55:08;50428.34;;;-141.28;100.00
7022;BME280;3552;42.664;23.406;2022-11-20T06:57:36;50422.47;;;-141.28;100.00
7022;BME280;3552;42.664;23.406;2022-11-20T07:00:03;50463.69;;;-141.28;100.00
7022;BME280;3552;42.664;23.406;2022-11-20T07:02:30;50471.53;;;-141.28;100.00
7022;BME280;3552;42.664;23.406;2022-11-20T07:04:57;50506.88;;;-141.28;100.00
7022;BME280;3552;42.664;23.406;2022-11-20T07:07:24;50508.81;;;-141.28;100.00
7022;BME280;3552;42.664;23.406;2022-11-20T07:09:51;50561.81;;;-141.28;100.00
7022;BME280;3552;42.664;23.406;2022-11-20T07:12:19;50605.00;;;-141.28;100.00
7022;BME280;3552;42.664;23.406;2022-11-20T07:14:48;50601.09;;;-141.28;100.00
7022;BME280;3552;42.664;23.406;2022-11-20T07:17:15;50601.09;;;-141.28;100.00
7022;BME280;3552;42.664;23.406;2022-11-20T07:19:42;50620.72;;;-141.28;100.00
7022;BME280;3552;42.664;23.406;2022-11-20T07:22:10;50636.41;;;-141.28;100.00
7022;BME280;3552;42.664;23.406;2022-11-20T07:24:38;50679.59;;;-141.28;100.00
7022;BME280;3552;42.664;23.406;2022-11-20T07:27:05;50718.88;;;-141.28;100.00
7022;BME280;3552;42.664;23.406;2022-11-20T07:29:33;50714.94;;;-141.28;100.00
7022;BME280;3552;42.664;23.406;2022-11-20T07:32:04;50762.06;;;-141.28;100.00
7022;BME280;3552;42.664;23.406;2022-11-20T07:34:30;50726.72;;;-141.28;100.00
7022;BME280;3552;42.664;23.406;2022-11-20T07:36:59;50746.34;;;-141.28;100.00
7022;BME280;3552;42.664;23.406;2022-11-20T07:39:26;50769.91;;;-141.28;100.00
7022;BME280;3552;42.664;23.406;2022-11-20T07:41:53;50711.00;;;-141.28;100.00
7022;BME280;3552;42.664;23.406;2022-11-20T07:44:20;50726.72;;;-141.28;100.00
7022;BME280;3552;42.664;23.406;2022-11-20T07:46:47;50661.94;;;-141.28;100.00
7022;BME280;3552;42.664;23.406;2022-11-20T07:49:15;50687.47;;;-141.28;100.00
7022;BME280;3552;42.664;23.406;2022-11-20T07:51:42;50628.56;;;-141.28;100.00
7022;BME280;3552;42.664;23.406;2022-11-20T07:54:09;50608.94;;;-141.28;100.00
7022;BME280;3552;42.664;23.406;2022-11-20T07:56:36;50632.50;;;-141.28;100.00
7022;BME280;3552;42.664;23.406;2022-11-20T07:59:03;50597.16;;;-141.28;100.00
7022;BME280;3552;42.664;23.406;2022-11-20T08:01:31;50640.34;;;-141.28;100.00
7022;BME280;3552;42.664;23.406;2022-11-20T08:03:59;50626.59;;;-141.28;100.00
7022;BME280;3552;42.664;23.406;2022-11-20T08:06:27;50658.00;;;-141.28;100.00
7022;BME280;3552;42.664;23.406;2022-11-20T08:08:54;50699.22;;;-141.28;100.00
7022;BME280;3552;42.664;23.406;2022-11-20T08:11:21;50699.22;;;-141.28;100.00
7022;BME280;3552;42.664;23.406;2022-11-20T08:14:10;50801.31;;;-141.28;100.00
7022;BME280;3552;42.664;23.406;2022-11-20T08:16:43;50828.78;;;-141.28;100.00
7022;BME280;3552;42.664;23.406;2022-11-20T08:19:10;50809.16;;;-141.28;100.00
7022;BME280;3552;42.664;23.406;2022-11-20T08:21:39;50785.59;;;-141.28;100.00
7022;BME280;3552;42.664;23.406;2022-11-20T08:24:07;50764.00;;;-141.28;100.00
7022;BME280;3552;42.664;23.406;2022-11-20T08:26:36;50832.72;;;-141.28;100.00
7022;BME280;3552;42.664;23.406;2022-11-20T08:29:04;50805.25;;;-141.28;100.00
7022;BME280;3552;42.664;23.406;2022-11-20T08:31:32;50864.13;;;-141.28;100.00
7022;BME280;3552;42.664;23.406;2022-11-20T08:33:59;50868.06;;;-141.28;100.00
7022;BME280;3552;42.664;23.406;2022-11-20T08:36:26;50840.56;;;-141.28;100.00
7022;BME280;3552;42.664;23.406;2022-11-20T08:38:55;50891.63;;;-141.28;100.00
7022;BME280;3552;42.664;23.406;2022-11-20T08:41:22;50962.28;;;-141.28;100.00
7022;BME280;3552;42.664;23.406;2022-11-20T08:43:54;50962.28;;;-141.28;100.00
7022;BME280;3552;42.664;23.406;2022-11-20T08:46:21;50981.91;;;-141.28;100.00
7022;BME280;3552;42.664;23.406;2022-11-20T08:48:50;50978.00;;;-141.28;100.00
7022;BME280;3552;42.664;23.406;2022-11-20T08:51:18;50993.69;;;-141.28;100.00
7022;BME280;3552;42.664;23.406;2022-11-20T08:53:46;51023.16;;;-141.28;100.00
7022;BME280;3552;42.664;23.406;2022-11-20T08:56:17;51015.28;;;-141.28;100.00
7022;BME280;3552;42.664;23.406;2022-11-20T08:58:44;50972.09;;;-141.28;100.00
7022;BME280;3552;42.664;23.406;2022-11-20T09:01:11;50981.91;;;-141.28;100.00
7022;BME280;3552;42.664;23.406;2022-11-20T09:03:38;50858.25;;;-141.28;100.00
7022;BME280;3552;42.664;23.406;2022-11-20T09:06:06;50844.50;;;-141.28;100.00
7022;BME280;3552;42.664;23.406;2022-11-20T09:08:33;50777.75;;;-141.28;100.00
7022;BME280;3552;42.664;23.406;2022-11-20T09:11:01;50765.97;;;-141.28;100.00
7022;BME280;3552;42.664;23.406;2022-11-20T09:13:31;50762.06;;;-141.28;100.00
7022;BME280;3552;42.664;23.406;2022-11-20T09:16:00;50693.34;;;-141.28;100.00
7022;BME280;3552;42.664;23.406;2022-11-20T09:18:27;50669.78;;;-141.28;100.00
7022;BME280;3552;42.664;23.406;2022-11-20T09:20:56;50577.53;;;-141.28;100.00
7022;BME280;3552;42.664;23.406;2022-11-20T09:23:23;50540.22;;;-141.28;100.00
7022;BME280;3552;42.664;23.406;2022-11-20T09:25:50;50396.94;;;-141.28;100.00
7022;BME280;3552;42.664;23.406;2022-11-20T09:28:18;50330.22;;;-141.28;100.00
7022;BME280;3552;42.664;23.406;2022-11-20T09:30:46;50275.25;;;-141.28;100.00
7022;BME280;3552;42.664;23.406;2022-11-20T09:33:13;50184.97;;;-141.28;100.00
7022;BME280;3552;42.664;23.406;2022-11-20T09:35:40;50110.38;;;-141.28;100.00
7022;BME280;3552;42.664;23.406;2022-11-20T09:38:09;50063.28;;;-141.28;100.00
7022;BME280;3552;42.664;23.406;2022-11-20T09:40:39;49988.69;;;-141.28;100.00
7022;BME280;3552;42.664;23.406;2022-11-20T09:43:11;49933.75;;;-141.28;100.00
7022;BME280;3552;42.664;23.406;2022-11-20T09:45:53;49929.81;;;-141.28;100.00
7022;BME280;3552;42.664;23.406;2022-11-20T09:49:00;49992.63;;;-141.28;100.00
7022;BME280;3552;42.664;23.406;2022-11-20T09:51:39;49933.75;;;-141.28;100.00
7022;BME280;3552;42.664;23.406;2022-11-20T09:54:15;49890.56;;;-141.28;100.00
7022;BME280;3552;42.664;23.406;2022-11-20T09:56:46;49827.78;;;-141.28;100.00
7022;BME280;3552;42.664;23.406;2022-11-20T09:59:26;49764.97;;;-141.28;100.00
7022;BME280;3552;42.664;23.406;2022-11-20T10:01:59;49764.97;;;-141.28;100.00
7022;BME280;3552;42.664;23.406;2022-11-20T10:04:29;49645.28;;;-141.28;100.00
7022;BME280;3552;42.664;23.406;2022-11-20T10:07:02;49545.19;;;-141.28;100.00
7022;BME280;3552;42.664;23.406;2022-11-20T10:09:34;49502.03;;;-141.28;100.00
7022;BME280;3552;42.664;23.406;2022-11-20T10:12:12;49451.00;;;-141.28;100.00
7022;BME280;3552;42.664;23.406;2022-11-20T10:14:49;49392.13;;;-141.28;100.00
7022;BME280;3552;42.664;23.406;2022-11-20T10:17:30;49368.59;;;-141.28;100.00
7022;BME280;3552;42.664;23.406;2022-11-20T10:20:12;49366.63;;;-141.28;100.00
7022;BME280;3552;42.664;23.406;2022-11-20T10:22:52;49311.69;;;-141.28;100.00
7022;BME280;3552;42.664;23.406;2022-11-20T10:25:26;49264.59;;;-141.28;100.00
7022;BME280;3552;42.664;23.406;2022-11-20T10:28:10;49223.38;;;-141.28;100.00
7022;BME280;3552;42.664;23.406;2022-11-20T10:30:43;49192.00;;;-141.28;100.00
7022;BME280;3552;42.664;23.406;2022-11-20T10:33:17;49095.84;;;-141.28;100.00
7022;BME280;3552;42.664;23.406;2022-11-20T10:35:50;49019.31;;;-141.28;100.00
7022;BME280;3552;42.664;23.406;2022-11-20T10:38:23;48991.84;;;-141.28;100.00
7022;BME280;3552;42.664;23.406;2022-11-20T10:40:54;48958.50;;;-141.28;100.00
7022;BME280;3552;42.664;23.406;2022-11-20T10:43:44;48972.25;;;-141.28;100.00
7022;BME280;3552;42.664;23.406;2022-11-20T10:46:15;48909.47;;;-141.28;100.00
7022;BME280;3552;42.664;23.406;2022-11-20T10:48:44;48878.06;;;-141.28;100.00
7022;BME280;3552;42.664;23.406;2022-11-20T10:51:18;48905.53;;;-141.28;100.00
7022;BME280;3552;42.664;23.406;2022-11-20T10:53:55;48915.34;;;-141.28;100.00
7022;BME280;3552;42.664;23.406;2022-11-20T10:56:30;48901.59;;;-141.28;100.00
7022;BME280;3552;42.664;23.406;2022-11-20T10:59:11;48964.38;;;-141.28;100.00
7022;BME280;3552;42.664;23.406;2022-11-20T11:01:43;48952.63;;;-141.28;100.00
7022;BME280;3552;42.664;23.406;2022-11-20T11:04:28;48933.00;;;-141.28;100.00
7022;BME280;3552;42.664;23.406;2022-11-20T11:07:04;48933.00;;;-141.28;100.00
7022;BME280;3552;42.664;23.406;2022-11-20T11:09:38;48946.72;;;-141.28;100.00
7022;BME280;3552;42.664;23.406;2022-11-20T11:12:07;48952.63;;;-141.28;100.00
7022;BME280;3552;42.664;23.406;2022-11-20T11:14:42;48962.44;;;-141.28;100.00
7022;BME280;3552;42.664;23.406;2022-11-20T11:17:21;48925.16;;;-141.28;100.00
7022;BME280;3552;42.664;23.406;2022-11-20T11:19:59;48882.00;;;-141.28;100.00
7022;BME280;3552;42.664;23.406;2022-11-20T11:22:28;48791.75;;;-141.28;100.00
7022;BME280;3552;42.664;23.406;2022-11-20T11:24:55;48980.09;;;-141.28;100.00
7022;BME280;3552;42.664;23.406;2022-11-20T11:27:22;48933.00;;;-141.28;100.00
7022;BME280;3552;42.664;23.406;2022-11-20T11:29:49;48980.09;;;-141.28;100.00
7022;BME280;3552;42.664;23.406;2022-11-20T11:32:19;49011.47;;;-141.28;100.00
7022;BME280;3552;42.664;23.406;2022-11-20T11:35:00;48991.84;;;-141.28;100.00
7022;BME280;3552;42.664;23.406;2022-11-20T11:37:33;48999.72;;;-141.28;100.00
7022;BME280;3552;42.664;23.406;2022-11-20T11:40:01;49027.19;;;-141.28;100.00
7022;BME280;3552;42.664;23.406;2022-11-20T11:42:28;49038.94;;;-141.28;100.00
7022;BME280;3552;42.664;23.406;2022-11-20T11:44:58;49086.03;;;-141.28;100.00
7022;BME280;3552;42.664;23.406;2022-11-20T11:47:33;49062.50;;;-141.28;100.00
7022;BME280;3552;42.664;23.406;2022-11-20T11:50:14;49113.50;;;-141.28;100.00
7022;BME280;3552;42.664;23.406;2022-11-20T11:52:45;49140.97;;;-141.28;100.00
7022;BME280;3552;42.664;23.406;2022-11-20T11:55:17;49137.06;;;-141.28;100.00
7022;BME280;3552;42.664;23.406;2022-11-20T11:57:51;49125.28;;;-141.28;100.00
7022;BME280;3552;42.664;23.406;2022-11-20T12:00:21;49068.38;;;-141.28;100.00
7022;BME280;3552;42.664;23.406;2022-11-20T12:02:56;49048.75;;;-141.28;100.00
7022;BME280;3552;42.664;23.406;2022-11-20T12:05:31;49011.47;;;-141.28;100.00
7022;BME280;3552;42.664;23.406;2022-11-20T12:08:09;48968.31;;;-141.28;100.00
7022;BME280;3552;42.664;23.406;2022-11-20T12:10:45;48966.34;;;-141.28;100.00
7022;BME280;3552;42.664;23.406;2022-11-20T12:13:20;48966.34;;;-141.28;100.00
7022;BME280;3552;42.664;23.406;2022-11-20T12:15:51;48989.91;;;-141.28;100.00
7022;BME280;3552;42.664;23.406;2022-11-20T12:18:20;48995.78;;;-141.28;100.00
7022;BME280;3552;42.664;23.406;2022-11-20T12:20:57;49003.63;;;-141.28;100.00
7022;BME280;3552;42.664;23.406;2022-11-20T12:23:35;49050.72;;;-141.28;100.00
7022;BME280;3552;42.664;23.406;2022-11-20T12:26:16;49048.75;;;-141.28;100.00
7022;BME280;3552;42.664;23.406;2022-11-20T12:28:55;49015.41;;;-141.28;100.00
7022;BME280;3552;42.664;23.406;2022-11-20T12:31:39;49054.66;;;-141.28;100.00
7022;BME280;3552;42.664;23.406;2022-11-20T12:34:35;49101.72;;;-141.28;100.00
7022;BME280;3552;42.664;23.406;2022-11-20T12:37:18;49135.09;;;-141.28;100.00
7022;BME280;3552;42.664;23.406;2022-11-20T12:39:49;49129.19;;;-141.28;100.00
7022;BME280;3552;42.664;23.406;2022-11-20T12:42:33;49137.06;;;-141.28;100.00
7022;BME280;3552;42.664;23.406;2022-11-20T12:48:35;49203.75;;;-141.28;100.00
7022;BME280;3552;42.664;23.406;2022-11-20T12:54:24;49152.75;;;-141.28;100.00
7022;BME280;3552;42.664;23.406;2022-11-20T12:56:59;49103.69;;;-141.28;100.00
7022;BME280;3552;42.664;23.406;2022-11-20T12:59:47;49035.03;;;-141.28;100.00
7022;BME280;3552;42.664;23.406;2022-11-20T13:02:25;49023.25;;;-141.28;100.00